createdAt,value
2017-12-20T00:01:17.598Z,37.20
2017-12-20T00:03:45.069Z,42.93
2017-12-20T00:06:12.569Z,46.57
2017-12-20T00:08:40.077Z,39.57
2017-12-20T00:11:08.342Z,37.07
2017-12-20T00:13:35.810Z,30.87
2017-12-20T00:16:04.078Z,36.37
2017-12-20T00:18:31.566Z,52.40
2017-12-20T00:20:59.785Z,44.20
2017-12-20T00:23:28.693Z,40.15
2017-12-20T00:25:56.154Z,33.83
2017-12-20T00:28:23.633Z,44.90
2017-12-20T00:30:51.877Z,29.87
2017-12-20T00:33:19.334Z,35.43
2017-12-20T00:35:46.808Z,28.30
2017-12-20T00:38:14.265Z,28.80
2017-12-20T00:40:41.758Z,31.40
2017-12-20T00:43:09.982Z,24.03
2017-12-20T00:45:38.148Z,36.77
2017-12-20T00:48:05.630Z,38.30
2017-12-20T00:50:33.083Z,15.57
2017-12-20T00:53:00.992Z,33.97
2017-12-20T00:55:28.666Z,28.02
2017-12-20T00:57:56.128Z,29.27
2017-12-20T01:00:23.604Z,34.10
2017-12-20T01:02:51.082Z,31.93
2017-12-20T01:05:19.801Z,30.00
2017-12-20T01:07:48.068Z,29.37
2017-12-20T01:10:15.530Z,36.20
2017-12-20T01:12:42.986Z,39.80
2017-12-20T01:15:10.469Z,31.00
2017-12-20T01:17:38.697Z,30.73
2017-12-20T01:20:06.190Z,30.87
2017-12-20T01:22:34.434Z,39.23
2017-12-20T01:25:01.933Z,27.27
2017-12-20T01:27:30.173Z,37.57
2017-12-20T01:29:57.625Z,41.47
2017-12-20T01:32:25.109Z,23.87
2017-12-20T01:34:52.566Z,31.80
2017-12-20T01:37:20.042Z,33.87
2017-12-20T01:39:48.267Z,26.73
2017-12-20T01:42:15.770Z,28.67
2017-12-20T01:44:43.995Z,35.60
2017-12-20T01:47:11.454Z,41.33
2017-12-20T01:49:39.012Z,25.57
2017-12-20T01:52:06.470Z,38.50
2017-12-20T01:54:33.935Z,35.00
2017-12-20T01:57:01.414Z,39.83
2017-12-20T01:59:28.891Z,26.23
2017-12-20T02:01:56.375Z,31.40
2017-12-20T02:04:23.859Z,32.13
2017-12-20T02:06:51.337Z,31.20
2017-12-20T02:09:18.819Z,26.37
2017-12-20T02:11:47.046Z,35.50
2017-12-20T02:14:14.526Z,33.63
2017-12-20T02:16:42.014Z,33.73
2017-12-20T02:19:09.494Z,43.63
2017-12-20T02:21:37.733Z,25.57
2017-12-20T02:24:05.218Z,32.53
2017-12-20T02:26:33.443Z,43.60
2017-12-20T02:29:00.903Z,45.00
2017-12-20T02:31:28.381Z,33.83
2017-12-20T02:33:55.858Z,35.63
2017-12-20T02:36:23.343Z,38.60
2017-12-20T02:38:51.593Z,30.50
2017-12-20T02:41:19.077Z,28.50
2017-12-20T02:43:46.623Z,37.30
2017-12-20T02:46:14.093Z,33.20
2017-12-20T02:48:41.663Z,35.87
2017-12-20T02:51:09.150Z,26.27
2017-12-20T02:53:36.611Z,26.63
2017-12-20T02:56:04.854Z,25.63
2017-12-20T02:58:32.342Z,25.27
2017-12-20T03:00:59.793Z,30.47
2017-12-20T03:03:27.254Z,32.70
2017-12-20T03:05:54.734Z,31.77
2017-12-20T03:08:22.192Z,27.50
2017-12-20T03:10:49.678Z,26.47
2017-12-20T03:13:17.153Z,29.93
2017-12-20T03:15:44.615Z,28.00
2017-12-20T03:18:12.166Z,33.53
2017-12-20T03:20:40.441Z,43.63
2017-12-20T03:23:08.670Z,39.73
2017-12-20T03:25:36.129Z,37.93
2017-12-20T03:28:03.621Z,31.47
2017-12-20T03:30:31.995Z,31.77
2017-12-20T03:32:59.453Z,35.63
2017-12-20T03:35:26.930Z,37.90
2017-12-20T03:37:54.393Z,27.33
2017-12-20T03:40:21.871Z,43.67
2017-12-20T03:42:49.321Z,33.40
2017-12-20T03:45:16.821Z,34.97
2017-12-20T03:47:44.283Z,55.40
2017-12-20T03:50:11.742Z,41.50
2017-12-20T03:52:39.226Z,47.37
2017-12-20T03:55:06.681Z,34.03
2017-12-20T03:57:34.169Z,29.67
2017-12-20T04:00:03.206Z,38.60
2017-12-20T04:02:30.661Z,42.20
2017-12-20T04:04:58.142Z,33.23
2017-12-20T04:07:25.629Z,41.93
2017-12-20T04:09:53.891Z,45.37
2017-12-20T04:12:21.346Z,38.97
2017-12-20T04:14:48.842Z,37.05
2017-12-20T04:17:16.306Z,57.57
2017-12-20T04:19:43.778Z,34.17
2017-12-20T04:22:11.286Z,52.87
2017-12-20T04:24:39.536Z,32.10
2017-12-20T04:27:07.026Z,73.77
2017-12-20T04:29:35.288Z,46.73
2017-12-20T04:32:03.009Z,32.63
2017-12-20T04:34:30.469Z,44.67
2017-12-20T04:36:57.954Z,46.40
2017-12-20T04:39:25.446Z,49.70
2017-12-20T04:41:53.669Z,56.60
2017-12-20T04:44:21.170Z,50.57
2017-12-20T04:46:48.621Z,54.67
2017-12-20T04:49:16.260Z,55.47
2017-12-20T04:51:43.773Z,41.03
2017-12-20T04:54:12.022Z,77.87
2017-12-20T04:56:39.514Z,55.37
2017-12-20T04:59:06.981Z,71.13
2017-12-20T05:01:34.453Z,56.40
2017-12-20T05:04:01.910Z,51.40
2017-12-20T05:06:29.389Z,47.30
2017-12-20T05:08:56.870Z,70.13
2017-12-20T05:11:24.341Z,65.80
2017-12-20T05:13:52.575Z,61.40
2017-12-20T05:16:20.088Z,72.20
2017-12-20T05:18:48.327Z,47.43
2017-12-20T05:21:15.798Z,39.53
2017-12-20T05:23:43.254Z,52.13
2017-12-20T05:26:10.729Z,47.20
2017-12-20T05:28:38.986Z,36.50
2017-12-20T05:31:06.495Z,54.60
2017-12-20T05:33:34.991Z,55.08
2017-12-20T05:36:02.441Z,39.00
2017-12-20T05:38:30.870Z,51.27
2017-12-20T05:40:58.345Z,55.73
2017-12-20T05:43:26.335Z,53.77
2017-12-20T05:45:53.834Z,64.07
2017-12-20T05:48:21.319Z,53.70
2017-12-20T05:50:48.799Z,62.03
2017-12-20T05:53:16.262Z,41.60
2017-12-20T05:55:43.748Z,46.70
2017-12-20T05:58:11.249Z,59.23
2017-12-20T06:00:38.702Z,76.63
2017-12-20T06:03:06.159Z,48.13
2017-12-20T06:05:33.634Z,58.10
2017-12-20T06:08:01.983Z,59.33
2017-12-20T06:10:29.661Z,69.23
2017-12-20T06:12:57.154Z,56.03
2017-12-20T06:15:24.617Z,39.57
2017-12-20T06:17:52.098Z,58.57
2017-12-20T06:20:19.598Z,47.03
2017-12-20T06:22:47.058Z,37.00
2017-12-20T06:25:14.534Z,55.00
2017-12-20T06:27:42.762Z,44.40
2017-12-20T06:30:10.311Z,41.43
2017-12-20T06:32:37.765Z,55.03
2017-12-20T06:35:06.038Z,45.42
2017-12-20T06:37:33.514Z,45.87
2017-12-20T06:40:04.960Z,39.63
2017-12-20T06:42:33.245Z,53.20
2017-12-20T06:45:01.469Z,57.23
2017-12-20T06:47:28.955Z,51.60
2017-12-20T06:49:56.430Z,54.63
2017-12-20T06:52:24.588Z,39.83
2017-12-20T06:54:52.067Z,39.63
2017-12-20T06:57:19.526Z,46.90
2017-12-20T06:59:47.010Z,43.70
2017-12-20T07:02:14.501Z,37.60
2017-12-20T07:04:41.966Z,47.43
2017-12-20T07:07:09.462Z,57.73
2017-12-20T07:09:36.922Z,40.87
2017-12-20T07:12:06.114Z,50.83
2017-12-20T07:14:33.573Z,47.37
2017-12-20T07:17:01.039Z,45.53
2017-12-20T07:19:28.516Z,57.95
2017-12-20T07:21:55.979Z,48.53
2017-12-20T07:24:24.186Z,44.00
2017-12-20T07:26:51.643Z,38.50
2017-12-20T07:29:19.927Z,56.80
2017-12-20T07:31:47.418Z,58.97
2017-12-20T07:34:14.873Z,37.33
2017-12-20T07:36:42.332Z,41.83
2017-12-20T07:39:09.806Z,43.07
2017-12-20T07:41:37.284Z,48.17
2017-12-20T07:44:04.760Z,43.10
2017-12-20T07:46:33.010Z,75.37
2017-12-20T07:49:00.481Z,52.00
2017-12-20T07:51:27.945Z,43.83
2017-12-20T07:53:55.417Z,39.40
2017-12-20T07:56:23.674Z,47.03
2017-12-20T07:58:52.083Z,44.33
2017-12-20T08:01:22.134Z,42.87
2017-12-20T08:03:49.586Z,54.30
2017-12-20T08:06:17.046Z,40.97
2017-12-20T08:08:44.522Z,38.43
2017-12-20T08:11:11.970Z,53.30
2017-12-20T08:13:39.449Z,49.10
2017-12-20T08:16:07.181Z,56.27
2017-12-20T08:18:34.653Z,57.37
2017-12-20T08:21:02.118Z,56.70
2017-12-20T08:23:29.596Z,74.37
2017-12-20T08:25:57.077Z,54.30
2017-12-20T08:28:24.655Z,65.32
2017-12-20T08:30:52.133Z,59.67
2017-12-20T08:33:19.585Z,68.17
2017-12-20T08:35:47.078Z,58.43
2017-12-20T08:38:14.537Z,77.83
2017-12-20T08:40:41.994Z,60.60
2017-12-20T08:43:09.513Z,64.47
2017-12-20T08:45:37.889Z,86.17
2017-12-20T08:48:05.949Z,79.83
2017-12-20T08:50:33.400Z,65.33
2017-12-20T08:53:01.667Z,46.07
2017-12-20T08:55:30.310Z,72.90
2017-12-20T08:57:57.825Z,72.47
2017-12-20T09:00:25.323Z,85.50
2017-12-20T09:02:52.786Z,90.53
2017-12-20T09:05:20.294Z,82.23
2017-12-20T09:07:47.797Z,78.80
2017-12-20T09:10:15.296Z,84.47
2017-12-20T09:12:42.757Z,86.27
2017-12-20T09:15:10.233Z,70.43
2017-12-20T09:17:39.442Z,84.53
2017-12-20T09:20:06.991Z,83.40
2017-12-20T09:22:36.207Z,94.67
2017-12-20T09:25:03.698Z,67.37
2017-12-20T09:27:31.195Z,109.00
2017-12-20T09:29:58.654Z,77.83
2017-12-20T09:32:26.110Z,104.33
2017-12-20T09:34:54.363Z,147.53
2017-12-20T09:37:21.827Z,144.30
2017-12-20T09:39:49.311Z,108.17
2017-12-20T09:42:17.534Z,142.93
2017-12-20T09:44:45.031Z,133.07
2017-12-20T09:47:12.500Z,119.07
2017-12-20T09:49:40.814Z,138.03
2017-12-20T09:52:09.194Z,127.03
2017-12-20T09:54:36.693Z,128.73
2017-12-20T09:57:04.250Z,319.40
2017-12-20T09:59:31.696Z,118.23
2017-12-20T10:01:59.162Z,108.60
2017-12-20T10:04:26.635Z,101.93
2017-12-20T10:06:54.118Z,148.97
2017-12-20T10:09:21.586Z,118.33
2017-12-20T10:11:49.086Z,119.73
2017-12-20T10:14:16.560Z,102.87
2017-12-20T10:16:44.051Z,126.83
2017-12-20T10:19:12.325Z,108.00
2017-12-20T10:21:40.770Z,91.28
2017-12-20T10:24:08.286Z,102.50
2017-12-20T10:26:35.762Z,75.07
2017-12-20T10:29:03.224Z,77.37
2017-12-20T10:31:31.467Z,69.37
2017-12-20T10:33:59.722Z,102.57
2017-12-20T10:36:27.194Z,68.27
2017-12-20T10:38:55.434Z,76.70
2017-12-20T10:41:22.915Z,63.33
2017-12-20T10:43:51.150Z,76.87
2017-12-20T10:46:18.666Z,71.50
2017-12-20T10:48:46.958Z,65.43
2017-12-20T10:51:14.418Z,68.33
2017-12-20T10:53:41.902Z,60.87
2017-12-20T10:56:09.378Z,66.33
2017-12-20T10:58:36.842Z,63.33
2017-12-20T11:01:04.329Z,61.13
2017-12-20T11:03:31.791Z,65.10
2017-12-20T11:05:59.291Z,57.43
2017-12-20T11:08:26.762Z,52.80
2017-12-20T11:10:54.241Z,75.63
2017-12-20T11:13:21.722Z,48.50
2017-12-20T11:15:49.970Z,50.00
2017-12-20T11:18:17.477Z,96.50
2017-12-20T11:20:44.934Z,69.97
2017-12-20T11:23:13.182Z,69.33
2017-12-20T11:25:42.909Z,60.12
2017-12-20T11:28:12.107Z,80.60
2017-12-20T11:30:40.347Z,78.13
2017-12-20T11:33:07.806Z,76.30
2017-12-20T11:35:35.291Z,84.73
2017-12-20T11:38:02.754Z,72.87
2017-12-20T11:40:30.217Z,85.70
2017-12-20T11:42:58.473Z,73.03
2017-12-20T11:45:25.953Z,75.73
2017-12-20T11:47:53.505Z,81.43
2017-12-20T11:50:21.762Z,80.87
2017-12-20T11:52:49.225Z,97.27
2017-12-20T11:55:16.703Z,83.07
2017-12-20T11:57:44.942Z,85.23
2017-12-20T12:00:12.413Z,82.23
2017-12-20T12:02:39.871Z,66.27
2017-12-20T12:05:07.358Z,66.00
2017-12-20T12:07:35.583Z,54.53
2017-12-20T12:10:03.086Z,71.83
2017-12-20T12:12:31.330Z,57.10
2017-12-20T12:14:59.558Z,59.47
2017-12-20T12:17:27.070Z,53.83
2017-12-20T12:19:54.538Z,49.37
2017-12-20T12:22:22.005Z,72.47
2017-12-20T12:24:49.481Z,66.83
2017-12-20T12:27:17.709Z,68.63
2017-12-20T12:29:45.194Z,77.93
2017-12-20T12:32:12.765Z,51.28
2017-12-20T12:34:40.258Z,76.83
2017-12-20T12:37:07.735Z,51.17
2017-12-20T12:39:35.237Z,57.43
2017-12-20T12:42:03.714Z,44.00
2017-12-20T12:44:31.188Z,48.07
2017-12-20T12:46:59.437Z,48.73
2017-12-20T12:49:26.905Z,45.17
2017-12-20T12:51:54.386Z,41.53
2017-12-20T12:54:22.605Z,43.23
2017-12-20T12:56:50.089Z,44.50
2017-12-20T12:59:18.745Z,27.90
2017-12-20T13:01:46.202Z,41.20
2017-12-20T13:04:13.698Z,46.63
2017-12-20T13:06:41.154Z,44.70
2017-12-20T13:09:08.634Z,41.80
2017-12-20T13:11:36.908Z,43.70
2017-12-20T13:14:05.134Z,39.93
2017-12-20T13:16:32.607Z,41.40
2017-12-20T13:19:00.066Z,36.10
2017-12-20T13:21:27.622Z,43.80
2017-12-20T13:23:55.090Z,40.63
2017-12-20T13:26:22.551Z,47.33
2017-12-20T13:28:50.032Z,45.97
2017-12-20T13:31:17.510Z,41.27
2017-12-20T13:33:44.964Z,44.40
2017-12-20T13:36:14.126Z,49.17
2017-12-20T13:38:41.644Z,54.43
2017-12-20T13:41:09.106Z,43.80
2017-12-20T13:43:36.589Z,36.97
2017-12-20T13:46:04.070Z,44.57
2017-12-20T13:48:31.530Z,45.53
2017-12-20T13:50:59.023Z,41.93
2017-12-20T13:53:26.899Z,47.13
2017-12-20T13:55:54.355Z,52.63
2017-12-20T13:58:21.841Z,60.23
2017-12-20T14:00:49.315Z,48.30
2017-12-20T14:03:16.776Z,39.20
2017-12-20T14:05:44.266Z,54.83
2017-12-20T14:08:12.534Z,52.37
2017-12-20T14:10:40.794Z,54.63
2017-12-20T14:13:08.298Z,56.77
2017-12-20T14:15:36.578Z,76.30
2017-12-20T14:18:04.050Z,55.00
2017-12-20T14:20:31.525Z,72.93
2017-12-20T14:22:58.978Z,59.90
2017-12-20T14:25:26.459Z,49.47
2017-12-20T14:27:53.931Z,61.37
2017-12-20T14:30:21.418Z,51.80
2017-12-20T14:32:48.872Z,61.23
2017-12-20T14:35:16.330Z,48.37
2017-12-20T14:37:44.744Z,52.90
2017-12-20T14:40:12.202Z,73.43
2017-12-20T14:42:40.190Z,52.73
2017-12-20T14:45:07.683Z,46.87
2017-12-20T14:47:35.936Z,62.57
2017-12-20T14:50:03.417Z,60.97
2017-12-20T14:52:31.650Z,67.40
2017-12-20T14:54:59.118Z,56.93
2017-12-20T14:57:26.601Z,38.40
2017-12-20T14:59:54.089Z,42.50
2017-12-20T15:02:21.568Z,42.33
2017-12-20T15:04:49.066Z,43.47
2017-12-20T15:07:16.527Z,41.37
2017-12-20T15:09:43.982Z,36.47
2017-12-20T15:12:11.463Z,48.63
2017-12-20T15:14:38.922Z,50.37
2017-12-20T15:17:07.142Z,44.03
2017-12-20T15:19:34.642Z,56.50
2017-12-20T15:22:02.128Z,44.13
2017-12-20T15:24:29.585Z,50.33
2017-12-20T15:26:57.114Z,58.83
2017-12-20T15:29:24.606Z,45.27
2017-12-20T15:31:52.102Z,48.63
2017-12-20T15:34:19.580Z,50.87
2017-12-20T15:36:47.986Z,50.57
2017-12-20T15:39:15.765Z,70.95
2017-12-20T15:41:43.256Z,57.87
2017-12-20T15:44:10.708Z,59.07
2017-12-20T15:46:38.170Z,84.43
2017-12-20T15:49:05.660Z,76.20
2017-12-20T15:51:33.110Z,87.90
2017-12-20T15:54:00.598Z,84.40
2017-12-20T15:56:28.826Z,64.63
2017-12-20T15:58:56.354Z,72.10
2017-12-20T16:01:23.838Z,80.50
2017-12-20T16:03:51.297Z,76.67
2017-12-20T16:06:18.789Z,89.33
2017-12-20T16:08:46.246Z,77.37
2017-12-20T16:11:13.745Z,101.40
2017-12-20T16:13:41.254Z,110.13
2017-12-20T16:16:08.737Z,105.27
2017-12-20T16:18:36.262Z,69.67
2017-12-20T16:21:03.738Z,118.30
2017-12-20T16:23:31.225Z,117.90
2017-12-20T16:25:58.721Z,84.90
2017-12-20T16:28:26.258Z,73.97
2017-12-20T16:30:53.724Z,76.97
2017-12-20T16:33:21.206Z,148.27
2017-12-20T16:35:48.717Z,55.90
2017-12-20T16:38:16.559Z,125.93
2017-12-20T16:40:44.026Z,80.83
2017-12-20T16:43:11.506Z,106.23
2017-12-20T16:45:38.998Z,131.83
2017-12-20T16:48:06.487Z,75.33
2017-12-20T16:50:33.974Z,134.20
2017-12-20T16:53:02.202Z,83.63
2017-12-20T16:55:29.669Z,95.60
2017-12-20T16:57:58.008Z,83.97
2017-12-20T17:00:25.490Z,92.73
2017-12-20T17:02:52.985Z,77.67
2017-12-20T17:05:20.455Z,103.40
2017-12-20T17:07:47.959Z,122.93
2017-12-20T17:10:15.441Z,103.60
2017-12-20T17:12:42.927Z,78.40
2017-12-20T17:15:10.428Z,96.90
2017-12-20T17:17:37.926Z,52.20
2017-12-20T17:20:05.394Z,75.37
2017-12-20T17:22:32.854Z,70.73
2017-12-20T17:25:00.382Z,57.20
2017-12-20T17:27:27.877Z,56.77
2017-12-20T17:29:55.337Z,54.07
2017-12-20T17:32:23.065Z,85.83
2017-12-20T17:34:51.424Z,69.90
2017-12-20T17:37:23.290Z,64.93
2017-12-20T17:39:50.986Z,65.30
2017-12-20T17:42:19.702Z,44.03
2017-12-20T17:44:48.814Z,58.65
2017-12-20T17:47:16.691Z,56.23
2017-12-20T17:49:45.215Z,60.70
2017-12-20T17:52:15.512Z,53.43
2017-12-20T17:54:43.708Z,49.97
2017-12-20T17:57:11.207Z,40.70
2017-12-20T17:59:39.613Z,58.63
2017-12-20T18:02:07.384Z,56.63
2017-12-20T18:07:34.987Z,42.55
2017-12-20T18:10:17.307Z,50.10
2017-12-20T18:13:03.229Z,51.90
2017-12-20T18:15:36.640Z,50.50
2017-12-20T18:18:09.218Z,57.38
2017-12-20T18:20:53.825Z,54.33
2017-12-20T18:23:21.557Z,44.73
2017-12-20T18:25:49.022Z,42.53
2017-12-20T18:28:16.519Z,64.97
2017-12-20T18:30:43.988Z,45.03
2017-12-20T18:33:11.469Z,117.10
2017-12-20T18:35:38.959Z,55.93
2017-12-20T18:38:06.450Z,74.40
2017-12-20T18:40:33.901Z,67.80
2017-12-20T18:43:02.146Z,57.23
2017-12-20T18:45:29.633Z,55.03
2017-12-20T18:47:57.122Z,50.53
2017-12-20T18:50:25.414Z,75.43
2017-12-20T18:52:53.654Z,55.20
2017-12-20T18:55:21.145Z,70.80
2017-12-20T18:57:49.150Z,48.75
2017-12-20T19:00:17.125Z,135.60
2017-12-20T19:02:44.968Z,86.27
2017-12-20T19:05:13.529Z,55.10
2017-12-20T19:07:41.486Z,115.73
2017-12-20T19:10:09.099Z,121.63
2017-12-20T19:12:36.936Z,61.03
2017-12-20T19:15:04.409Z,73.43
2017-12-20T19:17:32.071Z,99.50
2017-12-20T19:20:01.200Z,64.60
2017-12-20T19:22:28.665Z,84.30
2017-12-20T19:24:56.163Z,65.47
2017-12-20T19:27:23.634Z,86.60
2017-12-20T19:29:51.892Z,103.87
2017-12-20T19:32:19.711Z,72.03
2017-12-20T19:34:47.174Z,69.53
2017-12-20T19:37:14.633Z,63.97
2017-12-20T19:39:42.120Z,78.00
2017-12-20T19:42:09.589Z,56.87
2017-12-20T19:44:37.091Z,76.03
2017-12-20T19:47:04.570Z,74.97
2017-12-20T19:49:32.066Z,68.70
2017-12-20T19:51:59.520Z,94.63
2017-12-20T19:54:26.978Z,72.57
2017-12-20T19:56:54.457Z,55.20
2017-12-20T19:59:22.890Z,110.23
2017-12-20T20:01:53.279Z,86.10
2017-12-20T20:04:20.785Z,60.87
2017-12-20T20:06:48.236Z,91.83
2017-12-20T20:09:15.719Z,102.03
2017-12-20T20:11:43.189Z,63.13
2017-12-20T20:14:10.680Z,62.57
2017-12-20T20:16:38.152Z,69.07
2017-12-20T20:19:05.625Z,57.03
2017-12-20T20:21:33.274Z,65.07
2017-12-20T20:24:00.757Z,76.10
2017-12-20T20:26:28.520Z,99.17
2017-12-20T20:28:56.029Z,64.80
2017-12-20T20:31:23.678Z,75.10
2017-12-20T20:33:51.171Z,97.97
2017-12-20T20:36:20.323Z,103.27
2017-12-20T20:38:47.869Z,82.67
2017-12-20T20:41:15.473Z,71.63
2017-12-20T20:43:43.700Z,130.70
2017-12-20T20:46:11.371Z,57.37
2017-12-20T20:48:38.864Z,75.73
2017-12-20T20:51:07.441Z,69.40
2017-12-20T20:53:35.146Z,68.17
2017-12-20T20:56:02.681Z,70.10
2017-12-20T20:58:30.961Z,61.70
2017-12-20T21:00:59.244Z,89.90
2017-12-20T21:03:26.903Z,87.20
2017-12-20T21:05:55.261Z,91.53
2017-12-20T21:08:22.833Z,113.07
2017-12-20T21:10:52.140Z,109.20
2017-12-20T21:13:19.729Z,64.63
2017-12-20T21:15:47.222Z,98.00
2017-12-20T21:18:14.741Z,120.10
2017-12-20T21:20:42.217Z,76.00
2017-12-20T21:23:09.915Z,68.37
2017-12-20T21:25:37.389Z,60.50
2017-12-20T21:28:04.859Z,57.83
2017-12-20T21:30:33.040Z,61.70
2017-12-20T21:33:00.498Z,51.43
2017-12-20T21:35:27.973Z,82.13
2017-12-20T21:37:55.466Z,78.27
2017-12-20T21:40:22.933Z,93.13
2017-12-20T21:42:50.418Z,63.57
2017-12-20T21:45:17.877Z,74.10
2017-12-20T21:47:45.344Z,69.33
2017-12-20T21:50:12.844Z,127.00
2017-12-20T21:52:41.086Z,76.37
2017-12-20T21:55:08.600Z,120.63
2017-12-20T21:57:36.099Z,136.77
2017-12-20T22:00:04.334Z,72.13
2017-12-20T22:02:31.816Z,104.17
2017-12-20T22:05:00.053Z,76.47
2017-12-20T22:07:27.547Z,75.73
2017-12-20T22:09:55.302Z,66.63
2017-12-20T22:12:22.983Z,74.43
2017-12-20T22:14:50.472Z,68.87
2017-12-20T22:17:17.947Z,54.30
2017-12-20T22:19:45.454Z,60.60
2017-12-20T22:22:13.706Z,53.87
2017-12-20T22:24:41.208Z,93.50
2017-12-20T22:27:08.675Z,61.30
2017-12-20T22:29:36.171Z,58.13
2017-12-20T22:32:03.666Z,74.57
2017-12-20T22:34:31.929Z,86.83
2017-12-20T22:36:59.390Z,72.30
2017-12-20T22:39:26.935Z,65.60
2017-12-20T22:41:54.474Z,60.17
2017-12-20T22:44:22.043Z,45.00
2017-12-20T22:46:49.550Z,79.00
2017-12-20T22:49:17.587Z,60.63
2017-12-20T22:51:45.094Z,85.97
2017-12-20T22:54:12.695Z,69.70
2017-12-20T22:56:40.970Z,43.83
2017-12-20T22:59:08.465Z,58.20
2017-12-20T23:01:36.786Z,45.70
2017-12-20T23:04:04.250Z,67.63
2017-12-20T23:06:32.400Z,88.90
2017-12-20T23:08:59.938Z,31.53
2017-12-20T23:11:27.520Z,31.63
2017-12-20T23:13:55.038Z,46.63
2017-12-20T23:16:22.569Z,54.70
2017-12-20T23:18:50.036Z,47.37
2017-12-20T23:21:17.532Z,27.80
2017-12-20T23:23:45.034Z,50.53
2017-12-20T23:26:12.513Z,37.10
2017-12-20T23:28:39.962Z,49.23
2017-12-20T23:31:07.443Z,19.13
2017-12-20T23:33:35.070Z,36.60
2017-12-20T23:36:02.541Z,38.30
2017-12-20T23:38:30.207Z,48.50
2017-12-20T23:40:57.914Z,35.77
2017-12-20T23:43:25.540Z,35.93
2017-12-20T23:45:53.292Z,25.17
2017-12-20T23:48:21.007Z,41.90
2017-12-20T23:50:48.689Z,43.83
2017-12-20T23:53:17.858Z,53.23
2017-12-20T23:55:45.498Z,46.13
2017-12-20T23:58:14.019Z,37.37
